Time;durP1;ratioP1;P1;durP2;ratioP2;P2;SDS_P1;SDS_P2;PMS_P1;PMS_P2;Temp;Humidity;BMP_temperature;BMP_pressure;BME280_temperature;BME280_humidity;BME280_pressure;Samples;Min_cycle;Max_cycle;Signal;HPM_P1;HPM_P2
2022/08/09 00:00:19;;;;;;;12.90;5.53;;;;;;;15.71;100.00;102952.28;7381245;19;20048;-78
2022/08/09 00:02:52;;;;;;;11.35;6.18;;;;;;;15.73;100.00;102963.78;7380065;19;20406;-80
2022/08/09 00:05:23;;;;;;;10.85;5.45;;;;;;;15.75;100.00;102954.13;7378861;19;20011;-75
2022/08/09 00:08:16;;;;;;;11.55;5.63;;;;;;;15.71;100.00;102952.28;7372342;19;20558;-74
2022/08/09 00:11:04;;;;;;;11.25;6.43;;;;;;;15.67;100.00;102953.03;7372778;19;20003;-80
2022/08/09 00:13:54;;;;;;;11.70;5.65;;;;;;;15.64;100.00;102955.63;7378221;19;20015;-77
2022/08/09 00:16:25;;;;;;;14.90;6.18;;;;;;;15.63;100.00;102952.06;7373867;19;20475;-77
2022/08/09 00:19:08;;;;;;;13.13;5.50;;;;;;;15.63;100.00;102956.47;7373416;19;20014;-75
2022/08/09 00:21:39;;;;;;;11.05;6.00;;;;;;;15.63;100.00;102953.81;7371638;19;20024;-75
2022/08/09 00:24:25;;;;;;;14.10;6.32;;;;;;;15.60;100.00;102951.13;7375751;19;20006;-79
2022/08/09 00:26:58;;;;;;;9.65;5.47;;;;;;;15.57;100.00;102948.41;7373445;19;20014;-81
2022/08/09 00:29:29;;;;;;;15.07;6.43;;;;;;;15.55;100.00;102956.25;7375020;19;20018;-75
2022/08/09 00:32:20;;;;;;;10.25;5.00;;;;;;;15.55;100.00;102947.44;7371132;19;20665;-76
2022/08/09 00:34:56;;;;;;;13.85;6.40;;;;;;;15.52;100.00;102942.06;7371150;19;20041;-76
2022/08/09 00:37:27;;;;;;;11.18;5.32;;;;;;;15.52;100.00;102940.31;7374481;19;20010;-75
2022/08/09 00:40:01;;;;;;;11.07;5.53;;;;;;;15.51;100.00;102945.56;7373513;19;20014;-75
2022/08/09 00:42:47;;;;;;;11.10;5.88;;;;;;;15.48;100.00;102949.03;7371344;19;20418;-76
2022/08/09 00:45:40;;;;;;;13.23;5.47;;;;;;;15.45;100.00;102945.41;7373977;19;20131;-80
2022/08/09 00:48:22;;;;;;;10.10;5.70;;;;;;;15.43;100.00;102948.00;7380366;19;20090;-80
2022/08/09 00:50:55;;;;;;;12.02;5.40;;;;;;;15.42;100.00;102950.59;7379604;19;20860;-81
2022/08/09 00:53:25;;;;;;;12.13;5.75;;;;;;;15.36;100.00;102952.22;7374013;19;20032;-80
2022/08/09 00:55:55;;;;;;;12.90;6.78;;;;;;;15.37;100.00;102947.84;7375910;19;20022;-80
2022/08/09 00:58:41;;;;;;;10.10;5.53;;;;;;;15.37;100.00;102954.03;7377800;19;20074;-81
2022/08/09 01:01:22;;;;;;;12.55;6.65;;;;;;;15.37;100.00;102959.31;7377627;19;20020;-79
2022/08/09 01:04:06;;;;;;;12.95;5.90;;;;;;;15.34;100.00;102953.03;7381214;19;20027;-80
2022/08/09 01:06:44;;;;;;;12.55;6.05;;;;;;;15.33;100.00;102951.25;7379872;19;20451;-79
2022/08/09 01:09:37;;;;;;;16.08;6.43;;;;;;;15.29;100.00;102942.34;7382770;19;20011;-79
2022/08/09 01:12:14;;;;;;;;;;;;;;;15.29;100.00;102947.63;7384560;19;20011;-80
2022/08/09 01:14:54;;;;;;;13.02;5.45;;;;;;;15.27;100.00;102956.38;7383342;19;19966;-81
2022/08/09 01:17:38;;;;;;;11.80;5.75;;;;;;;15.26;100.00;102952.84;7381775;19;20002;-79
2022/08/09 01:20:11;;;;;;;10.50;6.00;;;;;;;15.24;100.00;102946.59;7384499;19;20006;-79
2022/08/09 01:23:12;;;;;;;12.30;6.10;;;;;;;15.21;100.00;102954.47;7380969;19;20040;-81
2022/08/09 01:26:27;;;;;;;13.48;5.63;;;;;;;15.15;100.00;102956.94;7383703;19;20025;-80
2022/08/09 01:29:05;;;;;;;13.80;6.40;;;;;;;15.13;100.00;102952.44;7385150;19;20093;-80
2022/08/09 01:31:39;;;;;;;11.20;5.78;;;;;;;15.11;100.00;102949.75;7388704;19;20030;-80
2022/08/09 01:34:31;;;;;;;14.52;6.15;;;;;;;15.11;100.00;102959.44;7380508;19;20017;-80
2022/08/09 01:37:10;;;;;;;12.18;6.20;;;;;;;15.07;100.00;102954.91;7386116;19;20014;-80
2022/08/09 01:39:43;;;;;;;12.52;6.32;;;;;;;15.05;100.00;102957.53;7382992;19;20007;-81
2022/08/09 01:42:14;;;;;;;15.27;6.90;;;;;;;15.03;100.00;102952.19;7380322;19;20069;-80
2022/08/09 01:44:48;;;;;;;14.10;6.18;;;;;;;15.01;100.00;102955.63;7381055;19;20010;-79
2022/08/09 01:47:20;;;;;;;13.20;6.30;;;;;;;14.96;100.00;102954.63;7384272;19;20708;-79
2022/08/09 01:49:52;;;;;;;11.80;5.63;;;;;;;14.96;100.00;102957.25;7382396;19;20037;-78
2022/08/09 01:52:25;;;;;;;15.23;7.45;;;;;;;14.91;100.00;102946.56;7374534;19;20014;-79
2022/08/09 01:55:03;;;;;;;12.85;6.72;;;;;;;14.89;100.00;102950.00;7378937;19;20766;-81
2022/08/09 01:57:38;;;;;;;11.57;5.40;;;;;;;14.86;100.00;102957.84;7378001;19;20014;-79
2022/08/09 02:00:18;;;;;;;10.40;5.80;;;;;;;14.83;100.00;102950.72;7375402;19;20680;-79
2022/08/09 02:03:07;;;;;;;14.45;7.60;;;;;;;14.79;100.00;102953.22;7379881;19;20714;-79
2022/08/09 02:05:44;;;;;;;13.63;6.10;;;;;;;14.76;100.00;102953.13;7377558;19;20089;-80
2022/08/09 02:08:38;;;;;;;16.83;6.82;;;;;;;14.77;100.00;102957.56;7379384;19;20015;-80
2022/08/09 02:11:32;;;;;;;14.27;6.80;;;;;;;14.70;100.00;102960.03;7379295;19;20049;-81
2022/08/09 02:14:14;;;;;;;13.60;6.95;;;;;;;14.71;100.00;102964.47;7379347;19;20263;-80
2022/08/09 02:16:57;;;;;;;11.50;6.40;;;;;;;14.70;100.00;102962.66;7379812;19;20013;-80
2022/08/09 02:19:48;;;;;;;12.40;6.32;;;;;;;14.65;100.00;102963.38;7380727;19;20675;-79
2022/08/09 02:22:25;;;;;;;14.85;7.15;;;;;;;14.65;100.00;102968.66;7375006;19;20014;-81
2022/08/09 02:25:15;;;;;;;15.32;7.38;;;;;;;14.62;100.00;102960.63;7371034;19;20014;-75
2022/08/09 02:27:53;;;;;;;13.80;6.85;;;;;;;14.58;100.00;102953.47;7367175;19;20410;-75
2022/08/09 02:30:39;;;;;;;13.70;6.60;;;;;;;14.54;100.00;102944.59;7372751;19;20021;-75
2022/08/09 02:33:18;;;;;;;14.77;7.53;;;;;;;14.52;100.00;102948.03;7369396;19;20014;-77
2022/08/09 02:35:56;;;;;;;12.43;6.60;;;;;;;14.50;100.00;102947.09;7371286;19;20042;-75
2022/08/09 02:38:38;;;;;;;14.90;6.75;;;;;;;14.46;100.00;102943.47;7371285;19;20482;-75
2022/08/09 02:41:22;;;;;;;13.32;7.00;;;;;;;14.45;100.00;102946.06;7370842;19;20045;-76
2022/08/09 02:43:54;;;;;;;14.95;6.53;;;;;;;14.45;100.00;102943.41;7373812;19;20051;-80
2022/08/09 02:46:28;;;;;;;15.77;7.15;;;;;;;14.43;100.00;102951.28;7378891;19;20043;-81
2022/08/09 02:49:04;;;;;;;14.88;7.47;;;;;;;14.43;100.00;102950.41;7371608;19;20015;-76
2022/08/09 02:51:38;;;;;;;13.80;6.05;;;;;;;14.41;100.00;102945.03;7374410;19;20279;-75
2022/08/09 02:54:12;;;;;;;13.15;5.97;;;;;;;14.38;100.00;102940.56;7372776;19;20043;-76
2022/08/09 02:56:48;;;;;;;13.50;7.03;;;;;;;14.34;100.00;102938.66;7373837;19;20003;-74
2022/08/09 02:59:27;;;;;;;13.93;6.68;;;;;;;14.30;100.00;102935.88;7371789;19;20014;-77
2022/08/09 03:02:08;;;;;;;14.32;6.55;;;;;;;14.30;100.00;102930.59;7368254;19;20014;-74
2022/08/09 03:04:52;;;;;;;16.13;7.15;;;;;;;14.28;100.00;102925.28;7374375;19;20006;-74
2022/08/09 03:07:24;;;;;;;13.75;7.20;;;;;;;14.27;100.00;102927.88;7372696;19;20063;-76
2022/08/09 03:09:55;;;;;;;16.58;7.10;;;;;;;14.24;100.00;102933.06;7370663;19;20014;-75
2022/08/09 03:12:35;;;;;;;20.73;7.47;;;;;;;14.22;100.00;102933.00;7370243;19;20015;-75
2022/08/09 03:15:10;;;;;;;12.13;6.88;;;;;;;14.17;100.00;102926.69;7369844;19;20503;-76
2022/08/09 03:17:41;;;;;;;15.32;7.57;;;;;;;14.16;100.00;102935.44;7372795;19;20014;-77
2022/08/09 03:20:15;;;;;;;16.08;7.78;;;;;;;14.15;100.00;102927.47;7379287;19;20663;-75
2022/08/09 03:22:55;;;;;;;18.05;7.90;;;;;;;14.14;100.00;102931.88;7380344;19;20620;-76
2022/08/09 03:25:34;;;;;;;16.83;8.00;;;;;;;14.07;100.00;102930.78;7378070;19;20046;-75
2022/08/09 03:28:27;;;;;;;14.07;6.70;;;;;;;14.02;100.00;102927.09;7377393;19;20006;-76
2022/08/09 03:31:01;;;;;;;15.70;6.88;;;;;;;13.99;100.00;102929.63;7381371;19;20010;-80
2022/08/09 03:33:40;;;;;;;12.70;7.28;;;;;;;13.94;100.00;102925.06;7377505;19;20066;-79
2022/08/09 03:36:28;;;;;;;14.55;7.32;;;;;;;13.92;100.00;102940.81;7380997;19;20018;-75
2022/08/09 03:39:05;;;;;;;15.85;7.90;;;;;;;13.88;100.00;102936.28;7383452;19;20014;-76
2022/08/09 03:41:37;;;;;;;14.93;8.02;;;;;;;13.89;100.00;102940.72;7381456;19;20545;-76
2022/08/09 03:44:20;;;;;;;15.85;7.75;;;;;;;13.85;100.00;102949.38;7380854;19;20021;-76
2022/08/09 03:46:56;;;;;;;17.23;8.40;;;;;;;13.88;100.00;102949.47;7381838;19;20022;-80
2022/08/09 03:49:31;;;;;;;14.65;6.97;;;;;;;13.86;100.00;102948.53;7383295;19;20011;-79
2022/08/09 03:52:10;;;;;;;16.33;8.63;;;;;;;13.84;100.00;102950.22;7380447;19;20014;-78
2022/08/09 03:54:41;;;;;;;18.10;8.32;;;;;;;13.84;100.00;102952.88;7378596;19;20018;-79
2022/08/09 03:57:14;;;;;;;23.00;8.65;;;;;;;13.85;100.00;102959.94;7378661;19;20588;-80
2022/08/09 03:59:55;;;;;;;15.68;7.72;;;;;;;13.81;100.00;102958.03;7381629;19;20013;-81
2022/08/09 04:02:32;;;;;;;17.85;7.85;;;;;;;13.82;100.00;102962.47;7383952;19;20034;-81
2022/08/09 04:05:05;;;;;;;18.65;8.90;;;;;;;13.82;100.00;102958.94;7382242;19;20038;-81
2022/08/09 04:07:57;;;;;;;17.17;8.05;;;;;;;13.83;100.00;102966.00;7379475;19;20021;-80
2022/08/09 04:10:36;;;;;;;17.27;8.13;;;;;;;13.82;100.00;102961.56;7382119;19;20057;-76
2022/08/09 04:13:08;;;;;;;15.30;7.80;;;;;;;13.78;100.00;102965.84;7372419;19;20633;-76
2022/08/09 04:15:43;;;;;;;19.05;8.43;;;;;;;13.79;100.00;102967.63;7379162;19;20011;-79
2022/08/09 04:18:40;;;;;;;19.10;8.88;;;;;;;13.77;100.00;102966.69;7378757;19;20050;-80
2022/08/09 04:21:11;;;;;;;20.00;9.65;;;;;;;13.82;100.00;102970.38;7380835;19;20011;-80
2022/08/09 04:23:43;;;;;;;22.02;10.10;;;;;;;13.87;100.00;102979.34;7377737;19;20130;-75
2022/08/09 04:26:23;;;;;;;22.40;9.25;;;;;;;13.93;100.00;102984.81;7379043;19;20017;-80
2022/08/09 04:29:05;;;;;;;20.52;8.43;;;;;;;13.97;100.00;102986.72;7377251;19;20362;-80
2022/08/09 04:31:43;;;;;;;18.98;9.10;;;;;;;14.02;100.00;102994.78;7384914;19;20027;-81
2022/08/09 04:34:16;;;;;;;22.40;9.77;;;;;;;14.07;100.00;102994.09;7381415;19;20015;-80
2022/08/09 04:37:01;;;;;;;19.35;8.40;;;;;;;14.11;100.00;102988.94;7386782;19;20002;-80
2022/08/09 04:39:35;;;;;;;23.38;9.25;;;;;;;14.19;100.00;103003.28;7391639;19;20002;-80
2022/08/09 04:42:09;;;;;;;21.60;10.27;;;;;;;14.22;100.00;102995.44;7390841;19;20566;-79
2022/08/09 04:44:44;;;;;;;17.55;8.77;;;;;;;14.24;100.00;102997.28;7391123;19;20018;-76
2022/08/09 04:47:18;;;;;;;20.75;9.80;;;;;;;14.29;100.00;102997.44;7394561;19;20014;-80
2022/08/09 04:49:48;;;;;;;20.42;9.60;;;;;;;14.34;100.00;102990.56;7390723;19;20039;-80
2022/08/09 04:52:25;;;;;;;20.98;9.88;;;;;;;14.34;100.00;103003.75;7384052;19;20391;-79
2022/08/09 04:55:01;;;;;;;18.02;8.80;;;;;;;14.34;100.00;102993.22;7381655;19;20043;-80
2022/08/09 04:57:40;;;;;;;;;;;;;;;14.37;100.00;102996.84;7388394;19;20006;-78
2022/08/09 05:00:33;;;;;;;22.27;9.15;;;;;;;14.45;100.00;102997.13;7384956;19;19907;-80
2022/08/09 05:03:07;;;;;;;19.52;8.85;;;;;;;14.47;100.00;103002.44;7382284;19;20035;-76
2022/08/09 05:05:58;;;;;;;19.10;8.68;;;;;;;14.52;100.00;102988.53;7379307;19;20522;-77
2022/08/09 05:08:37;;;;;;;19.85;8.60;;;;;;;14.57;100.00;102993.94;7376643;19;20426;-76
2022/08/09 05:11:15;;;;;;;20.60;9.10;;;;;;;14.61;100.00;102999.34;7378058;19;20038;-77
2022/08/09 05:13:52;;;;;;;19.65;8.73;;;;;;;14.64;100.00;102994.16;7378859;19;20010;-78
2022/08/09 05:16:24;;;;;;;20.17;8.68;;;;;;;14.69;100.00;102992.56;7375346;19;20010;-78
2022/08/09 05:19:02;;;;;;;20.30;8.80;;;;;;;14.82;100.00;102992.94;7373807;19;20049;-82
2022/08/09 05:21:38;;;;;;;21.70;9.45;;;;;;;14.94;100.00;103006.50;7375336;19;20011;-81
2022/08/09 05:24:21;;;;;;;21.17;9.02;;;;;;;15.09;100.00;102998.16;7379716;19;20018;-80
2022/08/09 05:26:55;;;;;;;19.73;8.90;;;;;;;15.26;100.00;102992.50;7379468;19;20021;-81
2022/08/09 05:29:25;;;;;;;19.27;9.38;;;;;;;15.43;100.00;102998.25;7379825;19;20013;-81
2022/08/09 05:32:06;;;;;;;17.73;8.45;;;;;;;15.57;100.00;103004.84;7379963;19;20007;-81
2022/08/09 05:34:38;;;;;;;17.98;8.30;;;;;;;15.72;100.00;102993.75;7377485;19;20010;-80
2022/08/09 05:37:15;;;;;;;18.30;8.02;;;;;;;15.82;100.00;102992.22;7378026;19;20009;-79
2022/08/09 05:39:48;;;;;;;;;;;;;;;16.02;100.00;102996.28;7381499;19;20046;-79
2022/08/09 05:42:21;;;;;;;21.08;8.70;;;;;;;16.14;100.00;102993.03;7380634;19;19911;-75
2022/08/09 05:45:07;;;;;;;18.95;8.45;;;;;;;16.26;100.00;102988.94;7381552;19;20047;-83
2022/08/09 05:47:43;;;;;;;15.23;8.20;;;;;;;16.39;100.00;102994.53;7384757;19;20014;-80
2022/08/09 05:50:24;;;;;;;14.35;7.20;;;;;;;16.59;100.00;103003.84;7382992;19;20086;-80
2022/08/09 05:53:14;;;;;;;15.35;7.22;;;;;;;16.83;100.00;103011.44;7378221;19;20357;-82
2022/08/09 05:56:09;;;;;;;14.95;7.55;;;;;;;17.01;100.00;103006.53;7379009;19;20018;-80
2022/08/09 05:58:50;;;;;;;19.48;7.32;;;;;;;17.07;100.00;103016.38;7382271;19;20506;-79
2022/08/09 06:01:29;;;;;;;17.42;7.70;;;;;;;17.39;100.00;103020.59;7383492;19;20015;-79
2022/08/09 06:04:12;;;;;;;18.27;7.00;;;;;;;17.45;100.00;103022.47;7385680;19;20006;-79
2022/08/09 06:06:43;;;;;;;17.80;7.15;;;;;;;17.63;100.00;103018.41;7381318;19;20019;-78
2022/08/09 06:09:25;;;;;;;16.92;7.50;;;;;;;17.76;100.00;103024.84;7383556;19;20014;-80
2022/08/09 06:12:15;;;;;;;16.23;7.85;;;;;;;17.77;100.00;103008.03;7361143;19;20465;-81
2022/08/09 06:14:54;;;;;;;13.70;7.05;;;;;;;17.74;100.00;103018.59;7383266;19;20018;-80
2022/08/09 06:17:32;;;;;;;14.27;7.20;;;;;;;18.08;100.00;103022.75;7388020;19;20029;-79
2022/08/09 06:20:12;;;;;;;14.85;7.05;;;;;;;18.32;100.00;103029.34;7385060;19;20037;-80
2022/08/09 06:22:46;;;;;;;16.83;7.32;;;;;;;18.66;100.00;103034.34;7386503;19;20011;-79
2022/08/09 06:25:19;;;;;;;14.82;6.80;;;;;;;18.72;100.00;103034.38;7386741;19;20570;-79
2022/08/09 06:27:53;;;;;;;16.58;7.80;;;;;;;18.73;100.00;103035.28;7383252;19;20010;-79
2022/08/09 06:30:28;;;;;;;13.20;6.45;;;;;;;18.84;100.00;103037.22;7382196;19;20010;-80
2022/08/09 06:33:00;;;;;;;16.65;7.30;;;;;;;18.96;100.00;103036.50;7380907;19;20445;-79
2022/08/09 06:35:51;;;;;;;14.82;7.22;;;;;;;19.13;100.00;103034.94;7376929;19;20408;-79
2022/08/09 06:38:27;;;;;;;14.98;6.13;;;;;;;19.32;100.00;103048.47;7382178;19;20003;-80
2022/08/09 06:41:18;;;;;;;;;;;;;;;;;;;;;
2022/08/09 06:43:51;;;;;;;14.82;5.75;;;;;;;19.60;100.00;103045.28;7374651;19;20006;-81
2022/08/09 06:46:24;;;;;;;15.05;5.75;;;;;;;19.90;100.00;103042.91;7372058;19;20010;-78
2022/08/09 06:49:09;;;;;;;14.55;6.40;;;;;;;20.19;100.00;103048.50;7377232;19;20028;-78
2022/08/09 06:51:43;;;;;;;13.20;6.13;;;;;;;20.19;100.00;103048.50;7379348;19;20042;-78
2022/08/09 06:54:15;;;;;;;12.70;5.80;;;;;;;20.53;100.00;103049.69;7379974;19;20029;-79
2022/08/09 06:56:48;;;;;;;12.90;5.63;;;;;;;20.62;100.00;103051.53;7384396;19;20007;-78
2022/08/09 06:59:19;;;;;;;11.90;5.75;;;;;;;20.72;100.00;103052.50;7389415;19;20003;-78
2022/08/09 07:02:13;;;;;;;12.25;5.20;;;;;;;20.88;100.00;103054.34;7384404;19;20081;-78
2022/08/09 07:04:45;;;;;;;13.57;5.75;;;;;;;20.88;100.00;103052.56;7384728;19;20021;-78
2022/08/09 07:07:15;;;;;;;10.93;5.20;;;;;;;20.78;100.00;103049.84;7392002;19;20450;-78
2022/08/09 07:10:06;;;;;;;10.00;4.15;;;;;;;21.12;100.00;103057.13;7388577;19;20018;-77
2022/08/09 07:12:54;;;;;;;10.38;4.63;;;;;;;21.27;100.00;103059.00;7384854;19;20018;-79
2022/08/09 07:15:30;;;;;;;;;;;;;;;21.23;100.00;103053.66;7387179;19;20010;-78
2022/08/09 07:18:30;;;;;;;10.88;4.63;;;;;;;21.46;100.00;103052.84;7383501;19;19948;-81
2022/08/09 07:21:04;;;;;;;7.53;3.70;;;;;;;21.44;100.00;103059.06;7385332;19;20029;-78
2022/08/09 07:23:40;;;;;;;9.27;4.00;;;;;;;21.75;100.00;103055.59;7383852;19;20006;-78
2022/08/09 07:26:30;;;;;;;12.50;4.78;;;;;;;21.63;98.89;103054.69;7382148;19;20054;-78
2022/08/09 07:29:32;;;;;;;12.32;4.63;;;;;;;21.75;97.79;103060.94;7380028;19;20037;-79
2022/08/09 07:32:11;;;;;;;7.90;3.75;;;;;;;21.74;97.77;103050.25;7382852;19;20010;-77
2022/08/09 07:34:56;;;;;;;9.30;3.58;;;;;;;22.22;95.57;103052.09;7376205;19;20019;-77
2022/08/09 07:37:49;;;;;;;6.72;3.58;;;;;;;21.98;95.85;103049.38;7380272;19;20011;-77
2022/08/09 07:40:23;;;;;;;7.15;3.95;;;;;;;21.93;95.44;103046.69;7380400;19;20110;-79
2022/08/09 07:43:06;;;;;;;9.15;3.90;;;;;;;22.26;93.68;103035.16;7378897;19;20018;-82
2022/08/09 07:45:46;;;;;;;10.02;3.83;;;;;;;22.39;91.78;103039.59;7381466;19;20003;-79
2022/08/09 07:48:19;;;;;;;6.85;3.28;;;;;;;22.56;91.42;103033.34;7379528;19;20028;-83
2022/08/09 07:51:08;;;;;;;6.25;3.08;;;;;;;22.20;89.04;103037.84;7379910;19;20018;-78
2022/08/09 07:53:59;;;;;;;7.50;3.22;;;;;;;22.42;88.50;103034.25;7380946;19;20387;-79
2022/08/09 07:56:38;;;;;;;6.32;3.42;;;;;;;22.43;86.48;103040.50;7384207;19;20006;-77
2022/08/09 07:59:19;;;;;;;8.27;3.47;;;;;;;22.43;86.19;103037.81;7379600;19;20010;-78
2022/08/09 08:02:09;;;;;;;6.22;3.17;;;;;;;22.43;86.55;103033.34;7379620;19;20085;-78
2022/08/09 08:04:53;;;;;;;8.32;3.60;;;;;;;22.78;85.52;103032.41;7379719;19;20677;-80
2022/08/09 08:07:28;;;;;;;6.75;2.80;;;;;;;22.82;82.81;103039.56;7382478;19;20051;-79
2022/08/09 08:10:21;;;;;;;6.15;2.72;;;;;;;22.59;81.20;103036.91;7380128;19;20015;-77
2022/08/09 08:12:56;;;;;;;7.10;2.75;;;;;;;22.72;81.70;103044.00;7380852;19;20010;-80
2022/08/09 08:15:26;;;;;;;5.43;3.00;;;;;;;22.91;81.61;103050.19;7379633;19;20029;-79
2022/08/09 08:18:00;;;;;;;4.22;2.30;;;;;;;23.31;78.86;103050.94;7375415;19;20038;-78
2022/08/09 08:20:32;;;;;;;5.85;2.75;;;;;;;22.98;76.12;103057.31;7376962;19;20085;-80
2022/08/09 08:23:08;;;;;;;4.88;2.38;;;;;;;23.10;76.88;103054.59;7373619;19;20010;-76
2022/08/09 08:25:51;;;;;;;4.35;2.40;;;;;;;23.09;77.55;103050.13;7377692;19;20541;-81
2022/08/09 08:28:40;;;;;;;5.03;2.78;;;;;;;23.20;77.16;103057.25;7378734;19;20011;-79
2022/08/09 08:31:09;;;;;;;6.93;2.22;;;;;;;23.28;75.70;103050.94;7379533;19;20475;-80
2022/08/09 08:33:45;;;;;;;4.65;2.30;;;;;;;23.49;75.47;103052.63;7382014;19;20027;-78
2022/08/09 08:36:28;;;;;;;7.00;2.50;;;;;;;23.57;75.02;103057.97;7381096;19;20033;-78
2022/08/09 08:39:03;;;;;;;5.97;2.53;;;;;;;23.56;73.64;103050.84;7384459;19;20758;-80
2022/08/09 08:41:39;;;;;;;5.75;2.25;;;;;;;23.73;72.79;103054.31;7379343;19;20517;-80
2022/08/09 08:44:23;;;;;;;6.28;2.55;;;;;;;23.77;72.98;103061.44;7383355;19;20007;-78
2022/08/09 08:47:00;;;;;;;4.97;2.55;;;;;;;23.87;71.59;103062.25;7382174;19;20030;-80
2022/08/09 08:49:41;;;;;;;5.43;2.67;;;;;;;24.11;70.37;103054.91;7386615;19;20097;-81
2022/08/09 08:52:24;;;;;;;5.53;2.42;;;;;;;23.75;70.75;103050.72;7385285;19;20011;-82
2022/08/09 08:55:19;;;;;;;5.68;2.40;;;;;;;24.36;68.40;103044.88;7384490;19;20428;-79
2022/08/09 08:57:56;;;;;;;2.95;2.10;;;;;;;24.52;68.68;103053.69;7384554;19;20689;-80
2022/08/09 09:00:30;;;;;;;6.40;2.30;;;;;;;24.61;67.29;103047.31;7383969;19;20010;-80
2022/08/09 09:03:05;;;;;;;4.78;2.25;;;;;;;24.58;66.81;103055.41;7381355;19;20014;-80
2022/08/09 09:05:57;;;;;;;6.93;2.90;;;;;;;24.49;67.63;103052.81;7383706;19;20019;-79
2022/08/09 09:08:39;;;;;;;5.10;2.70;;;;;;;24.48;66.87;103057.28;7387510;19;20014;-79
2022/08/09 09:11:14;;;;;;;5.38;2.40;;;;;;;24.39;66.75;103054.69;7389512;19;20090;-79
2022/08/09 09:13:54;;;;;;;3.63;1.98;;;;;;;24.84;63.56;103056.03;7382857;19;20003;-81
2022/08/09 09:16:31;;;;;;;7.47;2.40;;;;;;;24.96;63.38;103049.63;7386389;19;20027;-80
2022/08/09 09:19:10;;;;;;;3.75;2.00;;;;;;;25.07;61.84;103048.59;7389835;19;20031;-80
2022/08/09 09:22:09;;;;;;;3.85;1.90;;;;;;;24.68;60.42;103059.78;7384867;19;20066;-83
2022/08/09 09:24:42;;;;;;;6.80;2.33;;;;;;;24.72;59.20;103053.47;7384611;19;20334;-81
2022/08/09 09:27:21;;;;;;;3.75;1.88;;;;;;;24.93;58.85;103055.91;7383608;19;20372;-80
2022/08/09 09:30:13;;;;;;;2.10;1.70;;;;;;;24.94;59.26;103071.13;7377897;19;20041;-81
2022/08/09 09:33:13;;;;;;;3.97;1.92;;;;;;;24.62;59.04;103065.19;7383504;19;20336;-80
2022/08/09 09:35:57;;;;;;;3.13;2.17;;;;;;;24.56;60.53;103057.22;7383696;19;20042;-81
2022/08/09 09:38:47;;;;;;;3.00;2.00;;;;;;;24.92;60.90;103059.50;7387144;19;20006;-82
2022/08/09 09:41:34;;;;;;;1.90;1.70;;;;;;;24.91;58.30;103049.69;7385976;19;20015;-78
2022/08/09 09:44:27;;;;;;;4.32;2.10;;;;;;;25.67;59.16;103048.72;7383617;19;20010;-80
2022/08/09 09:47:12;;;;;;;4.90;2.10;;;;;;;25.78;58.38;103059.31;7377770;19;20310;-79
2022/08/09 09:49:54;;;;;;;3.05;1.73;;;;;;;25.57;57.04;103055.09;7385093;19;20462;-79
2022/08/09 09:52:53;;;;;;;4.05;2.13;;;;;;;25.91;56.85;103065.38;7381671;19;20118;-80
2022/08/09 09:55:30;;;;;;;4.97;1.88;;;;;;;25.67;56.09;103056.78;7378176;19;20010;-78
2022/08/09 09:58:24;;;;;;;4.07;2.13;;;;;;;25.76;56.98;103071.00;7384011;19;20423;-79
2022/08/09 10:01:04;;;;;;;4.47;1.75;;;;;;;25.52;55.93;103058.75;7383875;19;20016;-79
2022/08/09 10:03:56;;;;;;;4.57;2.08;;;;;;;26.26;55.44;103060.28;7371924;19;20538;-77
2022/08/09 10:06:32;;;;;;;5.63;2.03;;;;;;;26.25;54.06;103061.19;7376180;19;20339;-78
2022/08/09 10:09:07;;;;;;;6.53;2.05;;;;;;;26.05;54.80;103052.56;7371624;19;20022;-77
2022/08/09 10:12:00;;;;;;;2.10;1.70;;;;;;;26.36;53.35;103043.09;7372543;19;20714;-79
2022/08/09 10:14:54;;;;;;;1.52;1.40;;;;;;;26.45;50.29;103041.16;7376787;19;20381;-79
2022/08/09 10:17:34;;;;;;;4.82;1.70;;;;;;;25.91;47.01;103039.38;7369786;19;20027;-77
2022/08/09 10:20:27;;;;;;;5.03;1.75;;;;;;;26.04;47.84;103042.72;7374628;19;20052;-79
2022/08/09 10:23:21;;;;;;;5.18;1.60;;;;;;;26.71;48.19;103033.47;7373018;19;20056;-78
2022/08/09 10:25:55;;;;;;;3.83;1.65;;;;;;;26.35;48.77;103035.94;7369985;19;20015;-77
2022/08/09 10:28:41;;;;;;;3.47;1.55;;;;;;;26.28;47.50;103036.03;7375200;19;20042;-77
2022/08/09 10:31:18;;;;;;;3.22;1.70;;;;;;;26.45;47.35;103035.78;7372190;19;20011;-76
2022/08/09 10:34:14;;;;;;;2.42;1.50;;;;;;;26.08;47.31;103044.44;7370848;19;20038;-76
2022/08/09 10:37:03;;;;;;;2.58;1.55;;;;;;;26.27;46.72;103032.47;7368842;19;20017;-77
2022/08/09 10:39:38;;;;;;;1.65;1.55;;;;;;;26.24;47.96;103032.53;7373055;19;20011;-77
2022/08/09 10:42:24;;;;;;;3.42;1.73;;;;;;;26.55;48.25;103026.63;7373825;19;20011;-77
2022/08/09 10:45:05;;;;;;;2.65;1.40;;;;;;;26.44;47.72;103039.38;7373025;19;20010;-77
2022/08/09 10:47:53;;;;;;;2.28;1.58;;;;;;;26.38;46.78;103043.97;7372710;19;20026;-77
2022/08/09 10:51:08;;;;;;;3.53;1.58;;;;;;;26.44;47.45;103042.06;7371776;19;20019;-77
2022/08/09 10:53:52;;;;;;;1.77;1.45;;;;;;;26.14;48.15;103043.47;7368418;19;20018;-77
2022/08/09 10:56:26;;;;;;;1.95;1.42;;;;;;;26.45;47.53;103035.78;7369421;19;20044;-75
2022/08/09 10:59:03;;;;;;;2.50;1.67;;;;;;;26.25;48.34;103026.22;7371015;19;20011;-75
2022/08/09 11:01:43;;;;;;;4.88;1.95;;;;;;;26.39;47.03;103021.53;7370631;19;20087;-78
2022/08/09 11:04:37;;;;;;;3.55;1.70;;;;;;;26.34;47.13;103028.78;7373920;19;20010;-78
2022/08/09 11:07:31;;;;;;;1.95;1.40;;;;;;;26.69;46.70;103032.63;7378186;19;20238;-78
2022/08/09 11:10:56;;;;;;;3.13;1.60;;;;;;;26.65;46.57;103036.28;7376663;19;20003;-78
2022/08/09 11:13:39;;;;;;;2.60;1.58;;;;;;;26.52;47.01;103026.69;7373135;19;20467;-74
2022/08/09 11:16:39;;;;;;;2.35;1.70;;;;;;;26.64;48.08;103023.75;7374845;19;20289;-77
2022/08/09 11:19:10;;;;;;;4.30;1.70;;;;;;;27.02;48.68;103023.03;7367484;19;20006;-74
2022/08/09 11:21:56;;;;;;;3.38;1.60;;;;;;;27.19;48.10;103028.91;7369644;19;20062;-74
2022/08/09 11:25:10;;;;;;;3.47;1.70;;;;;;;27.25;47.87;103014.41;7379121;19;20152;-74
2022/08/09 11:27:45;;;;;;;3.03;1.50;;;;;;;27.36;45.32;103015.06;7370749;19;20027;-74
2022/08/09 11:30:37;;;;;;;4.95;1.83;;;;;;;27.11;46.29;103019.22;7374655;19;20288;-74
2022/08/09 11:33:35;;;;;;;3.97;1.50;;;;;;;26.87;48.11;103018.81;7377801;19;20014;-74
2022/08/09 11:36:08;;;;;;;4.68;2.17;;;;;;;27.35;47.45;103018.66;7370539;19;20006;-75
2022/08/09 11:38:43;;;;;;;3.85;1.90;;;;;;;27.36;48.05;103013.25;7375917;19;20023;-74
2022/08/09 11:41:39;;;;;;;2.63;2.10;;;;;;;27.64;47.70;103005.44;7381405;19;20025;-74
2022/08/09 11:44:10;;;;;;;3.63;1.77;;;;;;;27.60;47.98;102998.34;7383418;19;20018;-75
2022/08/09 11:46:56;;;;;;;4.75;1.88;;;;;;;27.75;47.83;102996.22;7380700;19;20015;-74
2022/08/09 11:50:00;;;;;;;4.32;2.17;;;;;;;27.44;48.15;103005.00;7380417;19;20082;-74
2022/08/09 11:53:28;;;;;;;2.95;1.77;;;;;;;27.58;47.93;103010.94;7377321;19;20011;-79
2022/08/09 11:56:34;;;;;;;5.22;1.83;;;;;;;27.82;47.24;102989.75;7385665;19;20011;-78
2022/08/09 11:59:30;;;;;;;5.30;1.90;;;;;;;27.91;48.19;102994.91;7384422;19;20014;-79
2022/08/09 12:02:02;;;;;;;4.38;1.98;;;;;;;27.56;48.58;102993.94;7379112;19;20007;-78
2022/08/09 12:04:54;;;;;;;4.25;2.17;;;;;;;27.90;50.09;102995.84;7384989;19;20324;-78
2022/08/09 12:07:31;;;;;;;6.22;2.55;;;;;;;27.88;50.63;102995.88;7380323;19;22311;-78
2022/08/09 12:10:12;;;;;;;4.07;2.05;;;;;;;28.49;51.87;102987.97;7374348;19;20015;-75
2022/08/09 12:13:02;;;;;;;4.28;2.00;;;;;;;28.20;49.69;102989.63;7378176;19;20029;-78
2022/08/09 12:16:07;;;;;;;4.38;2.28;;;;;;;27.85;50.57;102985.16;7382234;19;20017;-79
2022/08/09 12:19:01;;;;;;;6.03;2.30;;;;;;;27.67;49.44;102991.00;7380883;19;20616;-78
2022/08/09 12:21:34;;;;;;;3.97;1.88;;;;;;;27.77;49.94;102986.28;7385968;19;20039;-78